sensor_id;sensor_type;location;lat;lon;timestamp;P1;durP1;ratioP1;P2;durP2;ratioP2
12177;SDS011;6152;48.728;9.256;2023-12-20T00:01:11;0.50;;;0.50;;
12177;SDS011;6152;48.728;9.256;2023-12-20T00:03:37;0.75;;;0.43;;
12177;SDS011;6152;48.728;9.256;2023-12-20T00:06:03;1.13;;;0.60;;
12177;SDS011;6152;48.728;9.256;2023-12-20T00:08:29;0.47;;;0.47;;
12177;SDS011;6152;48.728;9.256;2023-12-20T00:10:55;0.38;;;0.30;;
12177;SDS011;6152;48.728;9.256;2023-12-20T00:13:21;0.75;;;0.35;;
12177;SDS011;6152;48.728;9.256;2023-12-20T00:15:47;0.60;;;0.45;;
12177;SDS011;6152;48.728;9.256;2023-12-20T00:18:13;1.27;;;0.30;;
12177;SDS011;6152;48.728;9.256;2023-12-20T00:20:40;1.27;;;0.50;;
12177;SDS011;6152;48.728;9.256;2023-12-20T00:23:06;0.35;;;0.30;;
12177;SDS011;6152;48.728;9.256;2023-12-20T00:25:33;0.55;;;0.38;;
12177;SDS011;6152;48.728;9.256;2023-12-20T00:28:00;0.30;;;0.30;;
12177;SDS011;6152;48.728;9.256;2023-12-20T00:30:27;0.30;;;0.30;;
12177;SDS011;6152;48.728;9.256;2023-12-20T00:32:53;0.20;;;0.20;;
12177;SDS011;6152;48.728;9.256;2023-12-20T00:35:20;0.20;;;0.20;;
12177;SDS011;6152;48.728;9.256;2023-12-20T00:37:46;0.20;;;0.20;;
12177;SDS011;6152;48.728;9.256;2023-12-20T00:40:12;0.40;;;0.30;;
12177;SDS011;6152;48.728;9.256;2023-12-20T00:42:38;0.30;;;0.30;;
12177;SDS011;6152;48.728;9.256;2023-12-20T00:45:05;0.30;;;0.30;;
12177;SDS011;6152;48.728;9.256;2023-12-20T00:47:31;0.25;;;0.20;;
12177;SDS011;6152;48.728;9.256;2023-12-20T00:49:58;1.23;;;0.30;;
12177;SDS011;6152;48.728;9.256;2023-12-20T00:52:24;0.28;;;0.28;;
12177;SDS011;6152;48.728;9.256;2023-12-20T00:54:50;1.00;;;0.30;;
12177;SDS011;6152;48.728;9.256;2023-12-20T00:57:17;0.40;;;0.40;;
12177;SDS011;6152;48.728;9.256;2023-12-20T00:59:43;0.30;;;0.30;;
12177;SDS011;6152;48.728;9.256;2023-12-20T01:02:09;1.00;;;0.55;;
12177;SDS011;6152;48.728;9.256;2023-12-20T01:04:35;0.30;;;0.30;;
12177;SDS011;6152;48.728;9.256;2023-12-20T01:07:01;0.32;;;0.30;;
12177;SDS011;6152;48.728;9.256;2023-12-20T01:09:27;0.30;;;0.30;;
12177;SDS011;6152;48.728;9.256;2023-12-20T01:11:53;0.45;;;0.45;;
12177;SDS011;6152;48.728;9.256;2023-12-20T01:14:20;0.30;;;0.30;;
12177;SDS011;6152;48.728;9.256;2023-12-20T01:16:46;0.20;;;0.20;;
12177;SDS011;6152;48.728;9.256;2023-12-20T01:19:12;0.40;;;0.40;;
12177;SDS011;6152;48.728;9.256;2023-12-20T01:21:40;0.30;;;0.30;;
12177;SDS011;6152;48.728;9.256;2023-12-20T01:24:06;0.70;;;0.30;;
12177;SDS011;6152;48.728;9.256;2023-12-20T01:26:32;0.30;;;0.30;;
12177;SDS011;6152;48.728;9.256;2023-12-20T01:28:58;0.20;;;0.20;;
12177;SDS011;6152;48.728;9.256;2023-12-20T01:31:24;1.55;;;0.20;;
12177;SDS011;6152;48.728;9.256;2023-12-20T01:33:52;0.47;;;0.30;;
12177;SDS011;6152;48.728;9.256;2023-12-20T01:36:18;0.68;;;0.30;;
12177;SDS011;6152;48.728;9.256;2023-12-20T01:38:44;2.25;;;0.30;;
12177;SDS011;6152;48.728;9.256;2023-12-20T01:41:10;0.55;;;0.32;;
12177;SDS011;6152;48.728;9.256;2023-12-20T01:43:37;1.05;;;0.25;;
12177;SDS011;6152;48.728;9.256;2023-12-20T01:46:03;0.65;;;0.40;;
12177;SDS011;6152;48.728;9.256;2023-12-20T01:48:29;0.30;;;0.30;;
12177;SDS011;6152;48.728;9.256;2023-12-20T01:50:59;0.30;;;0.30;;
12177;SDS011;6152;48.728;9.256;2023-12-20T01:53:26;0.38;;;0.38;;
12177;SDS011;6152;48.728;9.256;2023-12-20T01:55:54;1.25;;;0.30;;
12177;SDS011;6152;48.728;9.256;2023-12-20T01:58:21;0.25;;;0.25;;
12177;SDS011;6152;48.728;9.256;2023-12-20T02:00:48;2.58;;;0.30;;
12177;SDS011;6152;48.728;9.256;2023-12-20T02:03:15;0.30;;;0.30;;
12177;SDS011;6152;48.728;9.256;2023-12-20T02:05:41;0.35;;;0.35;;
12177;SDS011;6152;48.728;9.256;2023-12-20T02:08:09;0.50;;;0.40;;
12177;SDS011;6152;48.728;9.256;2023-12-20T02:10:35;0.30;;;0.30;;
12177;SDS011;6152;48.728;9.256;2023-12-20T02:13:01;0.45;;;0.45;;
12177;SDS011;6152;48.728;9.256;2023-12-20T02:15:29;0.82;;;0.50;;
12177;SDS011;6152;48.728;9.256;2023-12-20T02:17:55;0.30;;;0.30;;
12177;SDS011;6152;48.728;9.256;2023-12-20T02:20:22;0.52;;;0.35;;
12177;SDS011;6152;48.728;9.256;2023-12-20T02:22:48;0.55;;;0.35;;
12177;SDS011;6152;48.728;9.256;2023-12-20T02:25:14;0.43;;;0.40;;
12177;SDS011;6152;48.728;9.256;2023-12-20T02:27:40;2.80;;;0.50;;
12177;SDS011;6152;48.728;9.256;2023-12-20T02:30:08;0.88;;;0.40;;
12177;SDS011;6152;48.728;9.256;2023-12-20T02:32:35;0.40;;;0.30;;
12177;SDS011;6152;48.728;9.256;2023-12-20T02:35:01;0.82;;;0.30;;
12177;SDS011;6152;48.728;9.256;2023-12-20T02:37:27;2.78;;;0.40;;
12177;SDS011;6152;48.728;9.256;2023-12-20T02:39:53;2.15;;;0.40;;
12177;SDS011;6152;48.728;9.256;2023-12-20T02:42:19;0.90;;;0.30;;
12177;SDS011;6152;48.728;9.256;2023-12-20T02:44:45;0.88;;;0.40;;
12177;SDS011;6152;48.728;9.256;2023-12-20T02:47:11;1.27;;;0.32;;
12177;SDS011;6152;48.728;9.256;2023-12-20T02:49:37;0.50;;;0.30;;
12177;SDS011;6152;48.728;9.256;2023-12-20T02:52:04;0.38;;;0.30;;
12177;SDS011;6152;48.728;9.256;2023-12-20T02:54:30;0.40;;;0.40;;
12177;SDS011;6152;48.728;9.256;2023-12-20T02:56:56;0.40;;;0.30;;
12177;SDS011;6152;48.728;9.256;2023-12-20T02:59:22;1.65;;;0.30;;
12177;SDS011;6152;48.728;9.256;2023-12-20T03:01:48;1.40;;;0.43;;
12177;SDS011;6152;48.728;9.256;2023-12-20T03:04:14;1.67;;;0.25;;
12177;SDS011;6152;48.728;9.256;2023-12-20T03:06:40;0.30;;;0.30;;
12177;SDS011;6152;48.728;9.256;2023-12-20T03:09:06;1.00;;;0.20;;
12177;SDS011;6152;48.728;9.256;2023-12-20T03:11:33;0.47;;;0.28;;
12177;SDS011;6152;48.728;9.256;2023-12-20T03:13:59;0.20;;;0.20;;
12177;SDS011;6152;48.728;9.256;2023-12-20T03:16:25;0.30;;;0.20;;
12177;SDS011;6152;48.728;9.256;2023-12-20T03:18:51;0.30;;;0.30;;
12177;SDS011;6152;48.728;9.256;2023-12-20T03:21:17;0.28;;;0.28;;
12177;SDS011;6152;48.728;9.256;2023-12-20T03:23:43;0.28;;;0.25;;
12177;SDS011;6152;48.728;9.256;2023-12-20T03:26:10;0.28;;;0.28;;
12177;SDS011;6152;48.728;9.256;2023-12-20T03:28:36;0.40;;;0.30;;
12177;SDS011;6152;48.728;9.256;2023-12-20T03:31:02;0.30;;;0.30;;
12177;SDS011;6152;48.728;9.256;2023-12-20T03:33:29;0.30;;;0.20;;
12177;SDS011;6152;48.728;9.256;2023-12-20T03:35:55;1.08;;;0.30;;
12177;SDS011;6152;48.728;9.256;2023-12-20T03:38:21;0.30;;;0.30;;
12177;SDS011;6152;48.728;9.256;2023-12-20T03:40:50;0.28;;;0.28;;
12177;SDS011;6152;48.728;9.256;2023-12-20T03:43:16;0.85;;;0.30;;
12177;SDS011;6152;48.728;9.256;2023-12-20T03:45:42;0.30;;;0.30;;
12177;SDS011;6152;48.728;9.256;2023-12-20T03:48:09;0.50;;;0.40;;
12177;SDS011;6152;48.728;9.256;2023-12-20T03:50:35;0.30;;;0.30;;
12177;SDS011;6152;48.728;9.256;2023-12-20T03:53:01;0.20;;;0.20;;
12177;SDS011;6152;48.728;9.256;2023-12-20T03:55:28;0.13;;;0.10;;
12177;SDS011;6152;48.728;9.256;2023-12-20T03:57:55;0.10;;;0.10;;
12177;SDS011;6152;48.728;9.256;2023-12-20T04:00:21;0.20;;;0.20;;
12177;SDS011;6152;48.728;9.256;2023-12-20T04:02:47;0.10;;;0.10;;
12177;SDS011;6152;48.728;9.256;2023-12-20T04:05:13;0.33;;;0.20;;
12177;SDS011;6152;48.728;9.256;2023-12-20T04:07:39;1.50;;;0.40;;
12177;SDS011;6152;48.728;9.256;2023-12-20T04:10:05;0.10;;;0.10;;
12177;SDS011;6152;48.728;9.256;2023-12-20T04:12:32;0.10;;;0.10;;
12177;SDS011;6152;48.728;9.256;2023-12-20T04:14:58;0.83;;;0.10;;
12177;SDS011;6152;48.728;9.256;2023-12-20T04:17:24;0.53;;;0.10;;
12177;SDS011;6152;48.728;9.256;2023-12-20T04:19:51;0.10;;;0.10;;
12177;SDS011;6152;48.728;9.256;2023-12-20T04:22:17;0.00;;;0.00;;
12177;SDS011;6152;48.728;9.256;2023-12-20T04:24:44;0.00;;;0.00;;
12177;SDS011;6152;48.728;9.256;2023-12-20T04:27:10;0.00;;;0.00;;
12177;SDS011;6152;48.728;9.256;2023-12-20T04:29:36;0.10;;;0.00;;
12177;SDS011;6152;48.728;9.256;2023-12-20T04:32:02;0.10;;;0.10;;
12177;SDS011;6152;48.728;9.256;2023-12-20T04:34:29;0.10;;;0.10;;
12177;SDS011;6152;48.728;9.256;2023-12-20T04:36:55;0.20;;;0.00;;
12177;SDS011;6152;48.728;9.256;2023-12-20T04:39:21;0.00;;;0.00;;
12177;SDS011;6152;48.728;9.256;2023-12-20T04:41:47;0.90;;;0.00;;
12177;SDS011;6152;48.728;9.256;2023-12-20T04:44:15;0.13;;;0.10;;
12177;SDS011;6152;48.728;9.256;2023-12-20T04:46:41;0.00;;;0.00;;
12177;SDS011;6152;48.728;9.256;2023-12-20T04:49:07;0.00;;;0.00;;
12177;SDS011;6152;48.728;9.256;2023-12-20T04:51:33;1.03;;;0.00;;
12177;SDS011;6152;48.728;9.256;2023-12-20T04:54:00;0.00;;;0.00;;
12177;SDS011;6152;48.728;9.256;2023-12-20T04:56:26;0.00;;;0.00;;
12177;SDS011;6152;48.728;9.256;2023-12-20T04:58:53;0.43;;;0.00;;
12177;SDS011;6152;48.728;9.256;2023-12-20T05:01:19;0.00;;;0.00;;
12177;SDS011;6152;48.728;9.256;2023-12-20T05:03:46;0.00;;;0.00;;
12177;SDS011;6152;48.728;9.256;2023-12-20T05:06:12;0.83;;;0.60;;
12177;SDS011;6152;48.728;9.256;2023-12-20T05:08:39;0.47;;;0.10;;
12177;SDS011;6152;48.728;9.256;2023-12-20T05:11:05;0.63;;;0.10;;
12177;SDS011;6152;48.728;9.256;2023-12-20T05:13:32;0.10;;;0.10;;
12177;SDS011;6152;48.728;9.256;2023-12-20T05:15:58;1.50;;;0.20;;
12177;SDS011;6152;48.728;9.256;2023-12-20T05:18:24;1.35;;;0.20;;
12177;SDS011;6152;48.728;9.256;2023-12-20T05:20:50;1.17;;;0.10;;
12177;SDS011;6152;48.728;9.256;2023-12-20T05:23:17;0.10;;;0.10;;
12177;SDS011;6152;48.728;9.256;2023-12-20T05:25:43;0.10;;;0.10;;
12177;SDS011;6152;48.728;9.256;2023-12-20T05:28:09;0.10;;;0.10;;
12177;SDS011;6152;48.728;9.256;2023-12-20T05:30:35;0.80;;;0.10;;
12177;SDS011;6152;48.728;9.256;2023-12-20T05:33:01;0.35;;;0.10;;
12177;SDS011;6152;48.728;9.256;2023-12-20T05:35:27;2.92;;;0.10;;
12177;SDS011;6152;48.728;9.256;2023-12-20T05:37:53;0.15;;;0.10;;
12177;SDS011;6152;48.728;9.256;2023-12-20T05:40:19;0.10;;;0.10;;
12177;SDS011;6152;48.728;9.256;2023-12-20T05:42:46;0.10;;;0.10;;
12177;SDS011;6152;48.728;9.256;2023-12-20T05:45:14;0.15;;;0.10;;
12177;SDS011;6152;48.728;9.256;2023-12-20T05:47:40;0.15;;;0.15;;
12177;SDS011;6152;48.728;9.256;2023-12-20T05:50:06;0.52;;;0.10;;
12177;SDS011;6152;48.728;9.256;2023-12-20T05:52:32;0.20;;;0.20;;
12177;SDS011;6152;48.728;9.256;2023-12-20T05:54:59;0.20;;;0.20;;
12177;SDS011;6152;48.728;9.256;2023-12-20T05:57:28;1.17;;;0.20;;
12177;SDS011;6152;48.728;9.256;2023-12-20T05:59:54;1.20;;;0.10;;
12177;SDS011;6152;48.728;9.256;2023-12-20T06:02:20;0.47;;;0.22;;
12177;SDS011;6152;48.728;9.256;2023-12-20T06:04:46;1.70;;;0.20;;
12177;SDS011;6152;48.728;9.256;2023-12-20T06:07:13;0.38;;;0.10;;
12177;SDS011;6152;48.728;9.256;2023-12-20T06:09:40;0.75;;;0.30;;
12177;SDS011;6152;48.728;9.256;2023-12-20T06:12:06;0.60;;;0.40;;
12177;SDS011;6152;48.728;9.256;2023-12-20T06:14:35;0.50;;;0.50;;
12177;SDS011;6152;48.728;9.256;2023-12-20T06:17:02;0.98;;;0.40;;
12177;SDS011;6152;48.728;9.256;2023-12-20T06:19:28;1.63;;;0.65;;
12177;SDS011;6152;48.728;9.256;2023-12-20T06:21:54;0.93;;;0.38;;
12177;SDS011;6152;48.728;9.256;2023-12-20T06:24:20;0.47;;;0.47;;
12177;SDS011;6152;48.728;9.256;2023-12-20T06:26:46;0.40;;;0.40;;
12177;SDS011;6152;48.728;9.256;2023-12-20T06:29:12;0.30;;;0.20;;
12177;SDS011;6152;48.728;9.256;2023-12-20T06:31:38;0.57;;;0.47;;
12177;SDS011;6152;48.728;9.256;2023-12-20T06:34:04;0.20;;;0.20;;
12177;SDS011;6152;48.728;9.256;2023-12-20T06:36:30;1.02;;;0.47;;
12177;SDS011;6152;48.728;9.256;2023-12-20T06:38:57;0.20;;;0.20;;
12177;SDS011;6152;48.728;9.256;2023-12-20T06:41:23;1.27;;;0.30;;
12177;SDS011;6152;48.728;9.256;2023-12-20T06:43:49;0.88;;;0.22;;
12177;SDS011;6152;48.728;9.256;2023-12-20T06:46:16;0.50;;;0.20;;
12177;SDS011;6152;48.728;9.256;2023-12-20T06:48:42;0.50;;;0.20;;
12177;SDS011;6152;48.728;9.256;2023-12-20T06:51:13;0.20;;;0.20;;
12177;SDS011;6152;48.728;9.256;2023-12-20T06:53:40;0.20;;;0.20;;
12177;SDS011;6152;48.728;9.256;2023-12-20T06:56:07;0.20;;;0.20;;
12177;SDS011;6152;48.728;9.256;2023-12-20T06:58:34;1.02;;;0.20;;
12177;SDS011;6152;48.728;9.256;2023-12-20T07:01:01;2.28;;;0.30;;
12177;SDS011;6152;48.728;9.256;2023-12-20T07:03:27;0.85;;;0.40;;
12177;SDS011;6152;48.728;9.256;2023-12-20T07:05:53;1.50;;;0.52;;
12177;SDS011;6152;48.728;9.256;2023-12-20T07:08:20;0.50;;;0.50;;
12177;SDS011;6152;48.728;9.256;2023-12-20T07:10:46;1.40;;;0.40;;
12177;SDS011;6152;48.728;9.256;2023-12-20T07:13:12;0.35;;;0.35;;
12177;SDS011;6152;48.728;9.256;2023-12-20T07:15:39;0.60;;;0.32;;
12177;SDS011;6152;48.728;9.256;2023-12-20T07:18:05;0.77;;;0.40;;
12177;SDS011;6152;48.728;9.256;2023-12-20T07:20:32;0.50;;;0.50;;
12177;SDS011;6152;48.728;9.256;2023-12-20T07:22:58;0.52;;;0.40;;
12177;SDS011;6152;48.728;9.256;2023-12-20T07:25:24;0.35;;;0.35;;
12177;SDS011;6152;48.728;9.256;2023-12-20T07:27:50;0.55;;;0.40;;
12177;SDS011;6152;48.728;9.256;2023-12-20T07:30:16;0.80;;;0.50;;
12177;SDS011;6152;48.728;9.256;2023-12-20T07:32:43;0.60;;;0.47;;
12177;SDS011;6152;48.728;9.256;2023-12-20T07:35:09;0.93;;;0.63;;
12177;SDS011;6152;48.728;9.256;2023-12-20T07:37:35;0.70;;;0.47;;
12177;SDS011;6152;48.728;9.256;2023-12-20T07:40:01;1.27;;;0.65;;
12177;SDS011;6152;48.728;9.256;2023-12-20T07:42:28;0.60;;;0.60;;
12177;SDS011;6152;48.728;9.256;2023-12-20T07:44:54;3.78;;;0.95;;
12177;SDS011;6152;48.728;9.256;2023-12-20T07:47:21;0.70;;;0.70;;
12177;SDS011;6152;48.728;9.256;2023-12-20T07:49:48;0.90;;;0.80;;
12177;SDS011;6152;48.728;9.256;2023-12-20T07:52:16;2.25;;;1.40;;
12177;SDS011;6152;48.728;9.256;2023-12-20T07:54:43;1.90;;;1.42;;
12177;SDS011;6152;48.728;9.256;2023-12-20T07:57:10;3.05;;;1.60;;
12177;SDS011;6152;48.728;9.256;2023-12-20T07:59:36;2.72;;;1.50;;
12177;SDS011;6152;48.728;9.256;2023-12-20T08:02:03;2.03;;;1.75;;
12177;SDS011;6152;48.728;9.256;2023-12-20T08:04:29;3.45;;;2.10;;
12177;SDS011;6152;48.728;9.256;2023-12-20T08:06:55;3.20;;;2.72;;
12177;SDS011;6152;48.728;9.256;2023-12-20T08:09:21;3.90;;;2.60;;
12177;SDS011;6152;48.728;9.256;2023-12-20T08:11:48;3.08;;;2.30;;
12177;SDS011;6152;48.728;9.256;2023-12-20T08:14:14;4.70;;;2.47;;
12177;SDS011;6152;48.728;9.256;2023-12-20T08:16:40;2.92;;;2.55;;
12177;SDS011;6152;48.728;9.256;2023-12-20T08:19:07;2.92;;;2.63;;
12177;SDS011;6152;48.728;9.256;2023-12-20T08:21:33;5.32;;;3.13;;
12177;SDS011;6152;48.728;9.256;2023-12-20T08:23:59;3.35;;;2.50;;
12177;SDS011;6152;48.728;9.256;2023-12-20T08:26:26;4.82;;;2.75;;
12177;SDS011;6152;48.728;9.256;2023-12-20T08:28:52;3.15;;;2.42;;
12177;SDS011;6152;48.728;9.256;2023-12-20T08:31:18;3.42;;;2.30;;
12177;SDS011;6152;48.728;9.256;2023-12-20T08:33:45;4.53;;;2.90;;
12177;SDS011;6152;48.728;9.256;2023-12-20T08:36:12;3.13;;;2.60;;
12177;SDS011;6152;48.728;9.256;2023-12-20T08:38:38;4.82;;;2.65;;
12177;SDS011;6152;48.728;9.256;2023-12-20T08:41:05;5.78;;;3.30;;
12177;SDS011;6152;48.728;9.256;2023-12-20T08:43:31;3.25;;;2.70;;
12177;SDS011;6152;48.728;9.256;2023-12-20T08:45:59;3.45;;;2.58;;
12177;SDS011;6152;48.728;9.256;2023-12-20T08:48:25;5.00;;;2.65;;
12177;SDS011;6152;48.728;9.256;2023-12-20T08:50:51;3.60;;;2.70;;
12177;SDS011;6152;48.728;9.256;2023-12-20T08:53:18;2.63;;;2.35;;
12177;SDS011;6152;48.728;9.256;2023-12-20T08:55:44;4.18;;;2.60;;
12177;SDS011;6152;48.728;9.256;2023-12-20T08:58:10;4.10;;;2.40;;
12177;SDS011;6152;48.728;9.256;2023-12-20T09:00:37;4.28;;;3.20;;
12177;SDS011;6152;48.728;9.256;2023-12-20T09:03:03;4.97;;;2.70;;
12177;SDS011;6152;48.728;9.256;2023-12-20T09:05:30;3.63;;;2.58;;
12177;SDS011;6152;48.728;9.256;2023-12-20T09:07:56;3.60;;;2.35;;
12177;SDS011;6152;48.728;9.256;2023-12-20T09:10:22;3.17;;;2.60;;
12177;SDS011;6152;48.728;9.256;2023-12-20T09:12:51;4.82;;;2.63;;
12177;SDS011;6152;48.728;9.256;2023-12-20T09:15:25;3.80;;;2.42;;
12177;SDS011;6152;48.728;9.256;2023-12-20T09:17:52;3.50;;;2.53;;
12177;SDS011;6152;48.728;9.256;2023-12-20T09:20:18;4.57;;;2.60;;
12177;SDS011;6152;48.728;9.256;2023-12-20T09:22:45;2.63;;;2.40;;
12177;SDS011;6152;48.728;9.256;2023-12-20T09:25:11;4.63;;;2.50;;
12177;SDS011;6152;48.728;9.256;2023-12-20T09:27:38;3.78;;;2.33;;
12177;SDS011;6152;48.728;9.256;2023-12-20T09:30:05;3.75;;;2.22;;
12177;SDS011;6152;48.728;9.256;2023-12-20T09:32:31;4.53;;;2.30;;
12177;SDS011;6152;48.728;9.256;2023-12-20T09:34:58;4.20;;;2.05;;
12177;SDS011;6152;48.728;9.256;2023-12-20T09:37:27;3.05;;;2.13;;
12177;SDS011;6152;48.728;9.256;2023-12-20T09:39:53;2.17;;;1.77;;
12177;SDS011;6152;48.728;9.256;2023-12-20T09:43:09;2.75;;;1.52;;
12177;SDS011;6152;48.728;9.256;2023-12-20T09:45:09;4.03;;;1.80;;
12177;SDS011;6152;48.728;9.256;2023-12-20T09:47:38;4.07;;;1.50;;
12177;SDS011;6152;48.728;9.256;2023-12-20T09:50:05;2.83;;;1.02;;
12177;SDS011;6152;48.728;9.256;2023-12-20T09:52:32;2.30;;;0.70;;
12177;SDS011;6152;48.728;9.256;2023-12-20T09:55:01;1.02;;;0.73;;
12177;SDS011;6152;48.728;9.256;2023-12-20T09:57:30;3.13;;;0.80;;
12177;SDS011;6152;48.728;9.256;2023-12-20T09:59:57;2.40;;;0.77;;
12177;SDS011;6152;48.728;9.256;2023-12-20T10:02:24;1.30;;;0.43;;
12177;SDS011;6152;48.728;9.256;2023-12-20T10:04:54;2.70;;;0.52;;
12177;SDS011;6152;48.728;9.256;2023-12-20T10:07:21;1.65;;;0.57;;
12177;SDS011;6152;48.728;9.256;2023-12-20T10:09:47;3.53;;;0.60;;
12177;SDS011;6152;48.728;9.256;2023-12-20T10:12:15;1.17;;;0.65;;
12177;SDS011;6152;48.728;9.256;2023-12-20T10:14:41;1.17;;;0.50;;
12177;SDS011;6152;48.728;9.256;2023-12-20T10:17:07;2.45;;;0.50;;
12177;SDS011;6152;48.728;9.256;2023-12-20T10:19:33;0.88;;;0.60;;
12177;SDS011;6152;48.728;9.256;2023-12-20T10:21:59;2.53;;;0.40;;
12177;SDS011;6152;48.728;9.256;2023-12-20T10:24:28;3.08;;;0.52;;
12177;SDS011;6152;48.728;9.256;2023-12-20T10:27:04;1.60;;;0.70;;
12177;SDS011;6152;48.728;9.256;2023-12-20T10:29:34;1.65;;;0.70;;
12177;SDS011;6152;48.728;9.256;2023-12-20T10:34:50;2.00;;;0.52;;
12177;SDS011;6152;48.728;9.256;2023-12-20T10:37:17;4.43;;;0.63;;
12177;SDS011;6152;48.728;9.256;2023-12-20T10:39:43;1.90;;;0.35;;
12177;SDS011;6152;48.728;9.256;2023-12-20T10:42:14;1.48;;;0.40;;
12177;SDS011;6152;48.728;9.256;2023-12-20T10:44:42;1.65;;;0.40;;
12177;SDS011;6152;48.728;9.256;2023-12-20T10:47:09;1.90;;;0.63;;
12177;SDS011;6152;48.728;9.256;2023-12-20T10:49:38;1.42;;;0.40;;
12177;SDS011;6152;48.728;9.256;2023-12-20T10:52:05;3.67;;;0.80;;
12177;SDS011;6152;48.728;9.256;2023-12-20T10:54:33;2.15;;;0.50;;
12177;SDS011;6152;48.728;9.256;2023-12-20T10:57:00;2.22;;;0.73;;
12177;SDS011;6152;48.728;9.256;2023-12-20T10:59:30;2.22;;;0.75;;
12177;SDS011;6152;48.728;9.256;2023-12-20T11:02:02;1.83;;;0.60;;
12177;SDS011;6152;48.728;9.256;2023-12-20T11:04:40;3.25;;;0.60;;
12177;SDS011;6152;48.728;9.256;2023-12-20T11:07:17;2.70;;;0.50;;
12177;SDS011;6152;48.728;9.256;2023-12-20T11:09:58;3.33;;;0.60;;
12177;SDS011;6152;48.728;9.256;2023-12-20T11:15:27;6.95;;;0.70;;
12177;SDS011;6152;48.728;9.256;2023-12-20T11:17:57;3.10;;;0.90;;
12177;SDS011;6152;48.728;9.256;2023-12-20T11:20:24;1.85;;;0.70;;
12177;SDS011;6152;48.728;9.256;2023-12-20T11:23:03;1.33;;;0.60;;
12177;SDS011;6152;48.728;9.256;2023-12-20T11:25:30;3.90;;;0.68;;
12177;SDS011;6152;48.728;9.256;2023-12-20T11:28:13;2.60;;;0.80;;
12177;SDS011;6152;48.728;9.256;2023-12-20T11:30:46;2.85;;;0.73;;
12177;SDS011;6152;48.728;9.256;2023-12-20T11:33:16;1.25;;;1.00;;
12177;SDS011;6152;48.728;9.256;2023-12-20T11:35:46;2.20;;;0.77;;
12177;SDS011;6152;48.728;9.256;2023-12-20T11:38:13;1.88;;;0.73;;
12177;SDS011;6152;48.728;9.256;2023-12-20T11:40:41;2.50;;;0.70;;
12177;SDS011;6152;48.728;9.256;2023-12-20T11:43:08;5.05;;;0.85;;
12177;SDS011;6152;48.728;9.256;2023-12-20T11:45:34;2.90;;;0.50;;
12177;SDS011;6152;48.728;9.256;2023-12-20T11:48:02;2.75;;;0.70;;
12177;SDS011;6152;48.728;9.256;2023-12-20T11:50:28;4.90;;;0.70;;
12177;SDS011;6152;48.728;9.256;2023-12-20T11:52:55;1.45;;;0.70;;
12177;SDS011;6152;48.728;9.256;2023-12-20T11:55:22;1.90;;;0.70;;
12177;SDS011;6152;48.728;9.256;2023-12-20T11:57:49;2.10;;;0.57;;
12177;SDS011;6152;48.728;9.256;2023-12-20T12:00:17;3.80;;;1.05;;
12177;SDS011;6152;48.728;9.256;2023-12-20T12:02:54;1.63;;;0.70;;
12177;SDS011;6152;48.728;9.256;2023-12-20T12:05:21;4.45;;;0.98;;
12177;SDS011;6152;48.728;9.256;2023-12-20T12:07:47;1.77;;;0.70;;
12177;SDS011;6152;48.728;9.256;2023-12-20T12:10:13;3.30;;;0.80;;
12177;SDS011;6152;48.728;9.256;2023-12-20T12:12:40;3.60;;;0.73;;
12177;SDS011;6152;48.728;9.256;2023-12-20T12:15:06;1.40;;;1.25;;
12177;SDS011;6152;48.728;9.256;2023-12-20T12:17:33;3.40;;;0.80;;
12177;SDS011;6152;48.728;9.256;2023-12-20T12:20:03;5.82;;;1.50;;
12177;SDS011;6152;48.728;9.256;2023-12-20T12:22:30;4.45;;;0.98;;
12177;SDS011;6152;48.728;9.256;2023-12-20T12:24:58;7.15;;;1.08;;
12177;SDS011;6152;48.728;9.256;2023-12-20T12:27:34;3.25;;;0.70;;
12177;SDS011;6152;48.728;9.256;2023-12-20T12:30:03;5.32;;;1.10;;
12177;SDS011;6152;48.728;9.256;2023-12-20T12:32:32;4.18;;;0.95;;
12177;SDS011;6152;48.728;9.256;2023-12-20T12:34:58;2.10;;;0.60;;
12177;SDS011;6152;48.728;9.256;2023-12-20T12:37:24;3.30;;;0.80;;
12177;SDS011;6152;48.728;9.256;2023-12-20T12:39:53;3.30;;;0.60;;
12177;SDS011;6152;48.728;9.256;2023-12-20T12:42:20;1.73;;;0.80;;
12177;SDS011;6152;48.728;9.256;2023-12-20T12:44:46;2.05;;;0.65;;
12177;SDS011;6152;48.728;9.256;2023-12-20T12:47:12;2.95;;;1.17;;
12177;SDS011;6152;48.728;9.256;2023-12-20T12:49:40;1.75;;;0.60;;
12177;SDS011;6152;48.728;9.256;2023-12-20T12:52:06;1.92;;;0.85;;
12177;SDS011;6152;48.728;9.256;2023-12-20T12:54:32;0.80;;;0.73;;
12177;SDS011;6152;48.728;9.256;2023-12-20T12:56:58;2.30;;;0.70;;
12177;SDS011;6152;48.728;9.256;2023-12-20T12:59:25;0.93;;;0.60;;
12177;SDS011;6152;48.728;9.256;2023-12-20T13:01:51;1.65;;;0.50;;
12177;SDS011;6152;48.728;9.256;2023-12-20T13:04:18;2.67;;;0.70;;
12177;SDS011;6152;48.728;9.256;2023-12-20T13:06:44;2.63;;;0.60;;
12177;SDS011;6152;48.728;9.256;2023-12-20T13:09:12;3.47;;;0.93;;
12177;SDS011;6152;48.728;9.256;2023-12-20T13:11:38;5.97;;;0.82;;
12177;SDS011;6152;48.728;9.256;2023-12-20T13:14:04;5.78;;;1.25;;
12177;SDS011;6152;48.728;9.256;2023-12-20T13:16:31;5.85;;;1.20;;
12177;SDS011;6152;48.728;9.256;2023-12-20T13:18:57;2.25;;;0.90;;
12177;SDS011;6152;48.728;9.256;2023-12-20T13:21:24;2.20;;;0.95;;
12177;SDS011;6152;48.728;9.256;2023-12-20T13:23:50;2.95;;;0.50;;
12177;SDS011;6152;48.728;9.256;2023-12-20T13:26:18;3.55;;;0.80;;
12177;SDS011;6152;48.728;9.256;2023-12-20T13:28:45;2.50;;;0.82;;
12177;SDS011;6152;48.728;9.256;2023-12-20T13:31:11;3.85;;;0.60;;
12177;SDS011;6152;48.728;9.256;2023-12-20T13:33:37;1.10;;;0.47;;
12177;SDS011;6152;48.728;9.256;2023-12-20T13:36:04;2.72;;;0.52;;
12177;SDS011;6152;48.728;9.256;2023-12-20T13:38:30;5.10;;;0.75;;
12177;SDS011;6152;48.728;9.256;2023-12-20T13:40:56;1.20;;;0.52;;
12177;SDS011;6152;48.728;9.256;2023-12-20T13:43:23;2.38;;;0.68;;
12177;SDS011;6152;48.728;9.256;2023-12-20T13:45:50;2.03;;;0.50;;
12177;SDS011;6152;48.728;9.256;2023-12-20T13:48:16;2.22;;;0.70;;
12177;SDS011;6152;48.728;9.256;2023-12-20T13:50:42;1.08;;;0.43;;
12177;SDS011;6152;48.728;9.256;2023-12-20T13:53:09;4.18;;;0.68;;
12177;SDS011;6152;48.728;9.256;2023-12-20T13:55:35;3.25;;;0.80;;
12177;SDS011;6152;48.728;9.256;2023-12-20T13:58:01;1.10;;;0.40;;
12177;SDS011;6152;48.728;9.256;2023-12-20T14:00:28;1.47;;;0.60;;
12177;SDS011;6152;48.728;9.256;2023-12-20T14:02:54;2.83;;;0.73;;
12177;SDS011;6152;48.728;9.256;2023-12-20T14:05:20;1.33;;;0.70;;
12177;SDS011;6152;48.728;9.256;2023-12-20T14:07:48;3.10;;;0.60;;
12177;SDS011;6152;48.728;9.256;2023-12-20T14:10:16;3.77;;;0.73;;
12177;SDS011;6152;48.728;9.256;2023-12-20T14:12:42;2.77;;;0.50;;
12177;SDS011;6152;48.728;9.256;2023-12-20T14:15:09;3.90;;;0.63;;
12177;SDS011;6152;48.728;9.256;2023-12-20T14:17:38;2.77;;;0.80;;
12177;SDS011;6152;48.728;9.256;2023-12-20T14:20:05;2.20;;;0.67;;
12177;SDS011;6152;48.728;9.256;2023-12-20T14:22:32;3.70;;;0.80;;
12177;SDS011;6152;48.728;9.256;2023-12-20T14:24:58;3.00;;;0.97;;
12177;SDS011;6152;48.728;9.256;2023-12-20T14:27:24;3.73;;;0.60;;
12177;SDS011;6152;48.728;9.256;2023-12-20T14:29:53;1.70;;;0.67;;
12177;SDS011;6152;48.728;9.256;2023-12-20T14:32:19;2.20;;;0.50;;
12177;SDS011;6152;48.728;9.256;2023-12-20T14:34:46;1.27;;;0.60;;
12177;SDS011;6152;48.728;9.256;2023-12-20T14:37:12;3.20;;;0.50;;
12177;SDS011;6152;48.728;9.256;2023-12-20T14:39:39;2.83;;;1.43;;
12177;SDS011;6152;48.728;9.256;2023-12-20T14:42:07;3.60;;;1.00;;
12177;SDS011;6152;48.728;9.256;2023-12-20T14:44:39;5.53;;;1.00;;
12177;SDS011;6152;48.728;9.256;2023-12-20T14:47:08;3.63;;;0.70;;
12177;SDS011;6152;48.728;9.256;2023-12-20T14:49:35;0.97;;;0.40;;
12177;SDS011;6152;48.728;9.256;2023-12-20T14:52:02;4.07;;;0.60;;
12177;SDS011;6152;48.728;9.256;2023-12-20T14:54:28;1.90;;;0.40;;
12177;SDS011;6152;48.728;9.256;2023-12-20T14:56:55;6.30;;;0.60;;
12177;SDS011;6152;48.728;9.256;2023-12-20T14:59:22;1.73;;;0.60;;
12177;SDS011;6152;48.728;9.256;2023-12-20T15:01:48;2.53;;;0.77;;
12177;SDS011;6152;48.728;9.256;2023-12-20T15:04:14;3.70;;;1.00;;